Time;durP1;ratioP1;P1;durP2;ratioP2;P2;SDS_P1;SDS_P2;PMS_P1;PMS_P2;Temp;Humidity;BMP_temperature;BMP_pressure;BME280_temperature;BME280_humidity;BME280_pressure;Samples;Min_cycle;Max_cycle;Signal;HPM_P1;HPM_P2
2021/05/06 00:00:11;;;;;;;10.45;2.60;;;;;;;13.33;67.32;94616.84;5084176;28;20040;-73
2021/05/06 00:05:46;;;;;;;7.95;2.63;;;;;;;13.33;66.89;94623.91;5085039;28;20028;-72
2021/05/06 00:31:11;;;;;;;6.43;2.40;;;;;;;12.95;66.21;94644.03;5084281;28;20489;-73
2021/05/06 00:33:01;;;;;;;4.15;2.00;;;;;;;12.99;65.86;94639.88;5075399;28;20048;-73
2021/05/06 00:35:30;;;;;;;3.33;1.75;;;;;;;13.00;65.71;94652.69;5084120;28;20122;-72
2021/05/06 00:40:38;;;;;;;5.13;1.88;;;;;;;12.85;65.66;94649.94;5082998;28;20047;-73
2021/05/06 00:59:15;;;;;;;3.92;2.28;;;;;;;12.01;68.29;94633.75;5082739;28;20131;-73
2021/05/06 01:02:02;;;;;;;7.65;2.20;;;;;;;12.08;68.54;94645.81;5084085;28;20040;-72
2021/05/06 01:04:38;;;;;;;6.22;2.38;;;;;;;12.16;68.42;94653.22;5084599;28;20126;-73
2021/05/06 01:10:16;;;;;;;7.50;1.92;;;;;;;12.22;68.75;94662.69;5083422;28;20047;-73
2021/05/06 01:12:30;;;;;;;9.80;2.78;;;;;;;12.08;70.17;94661.47;5082075;28;20083;-74
2021/05/06 01:15:25;;;;;;;6.88;3.15;;;;;;;11.91;69.38;94669.38;5082979;28;20052;-73
2021/05/06 01:18:09;;;;;;;7.43;2.40;;;;;;;11.91;68.90;94666.78;5083093;28;20047;-73
2021/05/06 01:20:41;;;;;;;7.03;1.80;;;;;;;11.78;68.90;94652.25;5085530;28;20043;-73
2021/05/06 01:23:08;;;;;;;6.22;2.00;;;;;;;11.89;68.70;94664.38;5085227;28;20440;-73
2021/05/06 01:25:35;;;;;;;5.57;2.05;;;;;;;11.87;68.80;94671.66;5086202;28;20047;-73
2021/05/06 01:28:08;;;;;;;3.47;2.10;;;;;;;11.82;68.34;94658.53;5087400;28;20517;-73
2021/05/06 01:33:38;;;;;;;5.93;2.60;;;;;;;11.94;67.92;94667.06;5087995;28;20481;-73
2021/05/06 01:36:06;;;;;;;2.83;1.88;;;;;;;11.90;67.82;94655.53;5087648;28;20068;-73
2021/05/06 01:46:50;;;;;;;4.30;1.63;;;;;;;12.00;67.63;94679.13;5085881;28;19970;-73
2021/05/06 02:00:34;;;;;;;6.13;2.08;;;;;;;12.14;67.35;94691.84;5085403;28;20048;-73
2021/05/06 02:03:17;;;;;;;4.47;2.00;;;;;;;12.09;67.72;94689.94;5088818;28;20042;-73
2021/05/06 02:05:46;;;;;;;4.35;2.13;;;;;;;11.94;68.77;94682.72;5087226;28;20067;-73
2021/05/06 02:08:13;;;;;;;4.72;2.30;;;;;;;11.82;69.33;94689.84;5084352;28;20040;-72
2021/05/06 02:10:47;;;;;;;11.00;2.20;;;;;;;11.86;69.26;94696.94;5085719;28;20055;-73
2021/05/06 02:13:18;;;;;;;11.82;3.00;;;;;;;11.73;69.48;94696.53;5085627;28;20093;-73
2021/05/06 02:16:00;;;;;;;9.43;2.30;;;;;;;11.74;69.95;94695.47;5085895;28;20044;-73
2021/05/06 02:18:28;;;;;;;6.53;2.28;;;;;;;11.69;69.79;94698.03;5085194;28;20474;-73
2021/05/06 02:20:54;;;;;;;9.23;2.00;;;;;;;11.61;70.19;94700.03;5086667;28;20109;-73
2021/05/06 02:23:21;;;;;;;7.75;2.50;;;;;;;11.58;70.09;94703.09;5068892;28;20401;-73
2021/05/06 02:25:48;;;;;;;6.43;2.30;;;;;;;11.47;70.42;94704.78;5086640;28;20043;-73
2021/05/06 02:28:15;;;;;;;4.00;1.83;;;;;;;11.48;69.97;94705.56;5085406;28;20611;-73
2021/05/06 02:30:42;;;;;;;3.63;2.40;;;;;;;11.51;70.01;94705.09;5086442;28;20506;-73
2021/05/06 02:33:09;;;;;;;5.55;2.33;;;;;;;11.43;69.88;94697.66;5085803;28;20044;-70
2021/05/06 02:35:38;;;;;;;7.07;2.50;;;;;;;11.44;70.39;94707.09;5087632;28;20044;-73
2021/05/06 02:38:06;;;;;;;4.47;2.45;;;;;;;11.42;70.15;94711.75;5083967;28;20040;-73
2021/05/06 02:40:33;;;;;;;5.22;2.47;;;;;;;11.41;70.50;94707.53;5086475;28;20123;-72
2021/05/06 02:42:59;;;;;;;5.90;2.38;;;;;;;11.40;70.02;94698.16;5086408;28;20418;-73
2021/05/06 02:45:26;;;;;;;4.55;2.30;;;;;;;11.45;69.94;94716.47;5085725;28;20048;-73
2021/05/06 02:47:52;;;;;;;10.48;2.80;;;;;;;11.43;69.79;94708.09;5086331;28;20056;-73
2021/05/06 02:50:22;;;;;;;6.97;2.20;;;;;;;11.44;70.12;94714.91;5086266;28;20059;-73
2021/05/06 02:58:02;;;;;;;4.53;2.60;;;;;;;10.46;77.26;94730.72;5084860;28;20050;-73
2021/05/06 03:03:13;;;;;;;;;;;;;;;9.96;79.74;94726.88;5088129;28;20525;-73
2021/05/06 03:05:40;;;;;;;6.25;3.05;;;;;;;10.13;78.71;94732.94;5084336;28;19963;-73
2021/05/06 03:08:11;;;;;;;4.25;2.45;;;;;;;10.30;76.99;94742.66;5085141;28;20058;-73
2021/05/06 03:11:28;;;;;;;5.80;2.72;;;;;;;10.23;78.80;94742.00;5085490;28;20044;-73
2021/05/06 03:24:26;;;;;;;7.95;4.28;;;;;;;10.17;78.16;94763.72;5085877;28;20047;-73
2021/05/06 03:26:53;;;;;;;6.97;3.42;;;;;;;10.20;78.87;94763.28;5087411;28;20535;-73
2021/05/06 04:18:30;;;;;;;7.43;4.72;;;;;;;10.69;75.66;94819.19;5084790;28;20386;-73
2021/05/06 04:26:55;;;;;;;7.90;4.65;;;;;;;10.80;76.88;94838.41;5085085;28;20051;-73
2021/05/06 04:37:37;;;;;;;14.45;5.82;;;;;;;11.15;74.93;94858.34;5084352;28;20123;-75
2021/05/06 04:40:11;;;;;;;12.05;4.75;;;;;;;11.23;74.53;94865.78;5083297;28;20047;-74
2021/05/06 05:04:18;;;;;;;7.63;3.72;;;;;;;12.12;72.49;94881.84;5087964;28;20089;-75
2021/05/06 05:07:01;;;;;;;7.57;3.38;;;;;;;12.25;72.66;94889.38;5088421;28;20047;-75
2021/05/06 05:12:09;;;;;;;4.15;3.05;;;;;;;12.29;71.44;94903.53;5087426;28;20046;-74
2021/05/06 05:15:03;;;;;;;8.02;3.85;;;;;;;12.35;71.64;94907.81;5086344;28;20042;-75
2021/05/06 05:18:01;;;;;;;6.25;3.75;;;;;;;12.10;71.64;94874.28;5086848;28;20055;-75
2021/05/06 05:27:58;;;;;;;10.50;3.75;;;;;;;12.55;69.14;94909.09;5087828;28;20039;-75
2021/05/06 05:30:27;;;;;;;7.20;2.85;;;;;;;12.69;69.31;94918.16;5087178;28;20067;-74
2021/05/06 05:33:08;;;;;;;7.80;3.15;;;;;;;12.75;68.60;94917.22;5087310;28;20410;-75
2021/05/06 05:35:39;;;;;;;5.80;3.28;;;;;;;12.94;67.86;94920.31;5087274;28;20093;-74
2021/05/06 05:43:41;;;;;;;11.20;3.97;;;;;;;13.15;67.25;94929.19;5087430;28;20032;-75
2021/05/06 05:54:34;;;;;;;12.57;3.47;;;;;;;13.58;64.63;94924.19;5086630;28;20123;-74
2021/05/06 05:57:01;;;;;;;9.45;2.75;;;;;;;13.51;64.94;94913.91;5088077;28;20265;-75
2021/05/06 05:59:27;;;;;;;14.20;4.80;;;;;;;13.79;63.88;94924.38;5087923;28;20044;-75
2021/05/06 06:01:54;;;;;;;7.22;3.05;;;;;;;13.88;63.26;94939.41;5086287;28;20047;-74
2021/05/06 06:04:20;;;;;;;10.60;4.00;;;;;;;14.00;63.84;94941.06;5087147;28;20059;-75
2021/05/06 06:06:46;;;;;;;8.82;3.15;;;;;;;14.19;64.00;94950.13;5085152;28;20040;-75
2021/05/06 06:09:13;;;;;;;13.05;3.67;;;;;;;14.38;63.65;94944.47;5086147;28;20040;-75
2021/05/06 06:11:39;;;;;;;10.65;4.80;;;;;;;14.50;62.20;94945.09;5084676;28;20044;-74
2021/05/06 06:14:07;;;;;;;16.88;8.18;;;;;;;14.56;62.59;94948.53;5085543;28;20123;-74
2021/05/06 06:16:36;;;;;;;4.28;2.65;;;;;;;14.66;62.57;94954.66;5085803;28;20882;-74
2021/05/06 06:19:03;;;;;;;6.90;2.75;;;;;;;14.62;61.12;94927.38;5084711;28;20040;-74
2021/05/06 06:24:01;;;;;;;10.15;3.50;;;;;;;14.87;61.45;94954.75;5085389;28;20545;-74
2021/05/06 06:26:27;;;;;;;8.20;3.58;;;;;;;15.06;61.72;94958.53;5088762;28;20036;-77
2021/05/06 06:28:57;;;;;;;8.13;2.85;;;;;;;15.10;61.25;94959.59;5086662;28;20044;-73
2021/05/06 06:31:27;;;;;;;6.10;2.65;;;;;;;15.14;60.34;94946.75;5085049;28;20040;-74
2021/05/06 06:33:55;;;;;;;9.43;3.95;;;;;;;15.32;60.19;94966.50;5085803;28;20118;-74
2021/05/06 06:36:22;;;;;;;5.55;1.95;;;;;;;15.58;59.63;94966.59;5085082;28;20036;-74
2021/05/06 06:38:49;;;;;;;11.85;2.15;;;;;;;15.66;59.63;94971.34;5082231;28;20432;-73
2021/05/06 06:41:16;;;;;;;7.40;2.50;;;;;;;15.83;59.43;94977.19;5084722;28;20048;-74
2021/05/06 06:43:46;;;;;;;9.85;2.17;;;;;;;15.95;57.49;94973.53;5084020;28;20040;-74
2021/05/06 06:46:13;;;;;;;11.88;3.28;;;;;;;15.98;56.27;94967.75;5085696;28;20495;-74
2021/05/06 06:48:40;;;;;;;5.40;1.75;;;;;;;16.01;54.69;94973.28;5085245;28;20498;-74
2021/05/06 06:51:06;;;;;;;4.45;2.47;;;;;;;16.19;53.43;94976.44;5085486;28;20572;-74
2021/05/06 06:53:33;;;;;;;10.18;3.10;;;;;;;16.20;53.46;94960.41;5084978;28;20759;-74
2021/05/06 06:55:59;;;;;;;5.53;2.95;;;;;;;16.36;52.63;94963.03;5086111;28;20056;-74
2021/05/06 06:58:28;;;;;;;8.38;4.05;;;;;;;16.38;52.98;94981.94;5084582;28;20536;-73
2021/05/06 07:00:57;;;;;;;6.82;2.03;;;;;;;16.32;52.92;94972.50;5115987;27;20044;-74
2021/05/06 07:03:23;;;;;;;4.97;1.70;;;;;;;16.47;52.05;94964.59;5083898;28;20144;-73
2021/05/06 07:05:50;;;;;;;3.72;1.95;;;;;;;16.43;50.54;94974.06;5083605;28;20036;-74
2021/05/06 07:08:31;;;;;;;3.30;2.10;;;;;;;16.62;50.32;94982.22;5084904;28;20768;-74
2021/05/06 07:10:59;;;;;;;15.88;6.65;;;;;;;16.77;50.84;94974.28;5083376;28;20494;-74
2021/05/06 07:13:27;;;;;;;9.50;3.35;;;;;;;16.70;50.86;94967.75;5083960;28;20040;-74
2021/05/06 07:15:59;;;;;;;9.30;4.13;;;;;;;16.88;50.44;94972.47;5085345;28;20040;-70
2021/05/06 07:18:26;;;;;;;4.45;2.78;;;;;;;17.05;49.94;94966.09;5082840;28;20044;-74
2021/05/06 07:20:54;;;;;;;8.48;2.92;;;;;;;17.22;49.49;94974.47;5084834;28;20467;-76
2021/05/06 07:23:22;;;;;;;8.88;3.70;;;;;;;17.23;48.99;94970.00;5085398;28;20527;-74
2021/05/06 07:25:54;;;;;;;4.20;2.25;;;;;;;17.27;49.93;94979.72;5086045;28;20039;-74
2021/05/06 07:28:35;;;;;;;12.30;2.30;;;;;;;17.35;49.40;94973.88;5085415;28;20809;-74
2021/05/06 07:31:06;;;;;;;4.82;2.15;;;;;;;17.43;49.58;94984.91;5085777;28;20052;-75
2021/05/06 07:33:35;;;;;;;11.45;2.75;;;;;;;17.48;49.16;94982.25;5082456;28;20060;-75
2021/05/06 07:36:07;;;;;;;10.07;2.78;;;;;;;17.46;48.55;94977.25;5083580;28;20036;-75
2021/05/06 07:38:36;;;;;;;6.38;2.30;;;;;;;17.67;48.83;94980.59;5084681;28;20055;-75
2021/05/06 07:41:07;;;;;;;7.60;2.30;;;;;;;17.68;46.71;94992.72;5083716;28;20744;-73
2021/05/06 07:43:36;;;;;;;3.83;2.08;;;;;;;17.74;46.96;94988.19;5085534;28;20119;-75
2021/05/06 07:46:05;;;;;;;8.55;2.90;;;;;;;17.95;48.76;94991.50;5084230;28;20036;-75
2021/05/06 07:48:36;;;;;;;9.20;2.45;;;;;;;18.20;47.14;94997.69;5082874;28;20055;-74
2021/05/06 07:51:06;;;;;;;5.15;2.33;;;;;;;18.31;47.77;94994.72;5084580;28;20107;-75
2021/05/06 07:53:48;;;;;;;9.38;3.55;;;;;;;18.37;46.57;94992.03;5085637;28;20047;-75
2021/05/06 07:56:19;;;;;;;8.98;2.45;;;;;;;18.46;46.70;94985.88;5084711;28;20055;-75
2021/05/06 07:58:45;;;;;;;8.77;2.17;;;;;;;18.30;45.03;94992.34;5084709;28;20576;-75
2021/05/06 08:01:12;;;;;;;5.28;2.30;;;;;;;18.20;44.20;94987.16;5085698;28;20054;-75
2021/05/06 08:03:39;;;;;;;4.57;2.45;;;;;;;18.37;45.21;94987.56;5084187;28;20178;-75
2021/05/06 08:06:05;;;;;;;5.35;2.47;;;;;;;18.57;46.35;94981.31;5084932;28;20043;-75
2021/05/06 08:08:32;;;;;;;9.40;2.53;;;;;;;18.51;45.00;94988.50;5083710;28;20055;-75
2021/05/06 08:10:59;;;;;;;15.13;2.83;;;;;;;18.62;45.46;94985.75;5086497;28;20040;-75
2021/05/06 08:13:28;;;;;;;7.22;2.38;;;;;;;18.72;44.98;94994.34;5084946;28;20070;-76
2021/05/06 08:15:55;;;;;;;17.15;3.15;;;;;;;18.51;44.33;94988.50;5086672;28;20040;-75
2021/05/06 08:18:23;;;;;;;5.90;2.20;;;;;;;18.51;43.74;94977.94;5084821;28;20109;-75
2021/05/06 08:20:50;;;;;;;6.53;2.47;;;;;;;18.78;43.70;94981.94;5083822;28;20602;-75
2021/05/06 08:23:20;;;;;;;5.18;2.10;;;;;;;18.83;42.69;95000.34;5084563;28;20123;-75
2021/05/06 08:25:47;;;;;;;4.43;2.83;;;;;;;18.82;41.45;94998.78;5083489;28;20036;-74
2021/05/06 08:28:14;;;;;;;4.13;2.20;;;;;;;19.02;41.09;95002.31;5084539;28;20693;-74
2021/05/06 08:30:41;;;;;;;6.82;2.17;;;;;;;18.94;42.14;94992.34;5086525;28;20036;-74
2021/05/06 08:33:07;;;;;;;5.30;2.45;;;;;;;19.02;41.62;95004.94;5088609;28;20064;-74
2021/05/06 08:35:34;;;;;;;9.32;2.95;;;;;;;19.10;41.65;94999.84;5089072;28;20083;-75
2021/05/06 08:38:02;;;;;;;5.35;2.50;;;;;;;19.13;41.48;94987.91;5087269;28;20044;-75
2021/05/06 08:40:28;;;;;;;7.38;2.80;;;;;;;19.07;41.39;94995.13;5085551;28;20113;-75
2021/05/06 08:42:55;;;;;;;8.95;2.13;;;;;;;19.18;41.35;94990.50;5087144;28;20042;-77
2021/05/06 08:45:35;;;;;;;6.63;3.05;;;;;;;19.20;41.33;94998.94;5088393;28;20046;-75
2021/05/06 08:48:03;;;;;;;10.82;2.88;;;;;;;19.48;40.86;94999.13;5088858;28;20040;-75
2021/05/06 08:50:30;;;;;;;7.15;3.15;;;;;;;19.48;40.07;94994.66;5087980;28;20036;-74
2021/05/06 08:52:58;;;;;;;6.93;3.67;;;;;;;19.66;39.94;94993.13;5092111;28;20052;-75
2021/05/06 08:55:24;;;;;;;8.40;2.17;;;;;;;19.83;40.17;94989.22;5087945;28;20059;-75
2021/05/06 08:57:51;;;;;;;7.47;2.20;;;;;;;20.15;39.42;94995.63;5088592;28;20158;-76
2021/05/06 09:00:18;;;;;;;2.17;1.50;;;;;;;20.37;37.49;94990.53;5087304;28;20048;-76
2021/05/06 09:02:46;;;;;;;6.00;1.70;;;;;;;20.49;37.41;94989.31;5087189;28;20048;-75
2021/05/06 09:05:14;;;;;;;6.28;1.80;;;;;;;20.53;36.19;94985.03;5088763;28;20082;-75
2021/05/06 09:07:44;;;;;;;3.25;1.63;;;;;;;20.76;35.98;95005.28;5089107;28;20035;-75
2021/05/06 09:10:33;;;;;;;4.30;1.45;;;;;;;21.04;34.60;95007.97;5088438;28;20052;-74
2021/05/06 09:13:00;;;;;;;8.50;1.60;;;;;;;20.84;36.05;95005.69;5088301;28;20044;-76
2021/05/06 09:15:27;;;;;;;3.63;1.80;;;;;;;21.18;35.38;95000.84;5089415;28;20047;-76
2021/05/06 09:17:53;;;;;;;2.35;1.52;;;;;;;21.29;34.95;95000.66;5089040;28;20032;-74
2021/05/06 09:20:26;;;;;;;2.33;1.67;;;;;;;21.44;34.03;95013.56;5088362;28;20040;-75
2021/05/06 09:22:55;;;;;;;2.97;1.52;;;;;;;21.26;34.61;94995.94;5088043;28;20135;-76
2021/05/06 09:25:38;;;;;;;4.88;1.98;;;;;;;21.45;34.19;94996.66;5085014;28;20755;-78
2021/05/06 09:28:16;;;;;;;10.25;2.20;;;;;;;21.54;34.50;95000.16;5087614;28;20067;-77
2021/05/06 09:30:59;;;;;;;4.38;1.30;;;;;;;21.84;33.30;94990.03;5086701;28;20497;-75
2021/05/06 09:33:29;;;;;;;9.25;1.73;;;;;;;21.96;32.24;95000.09;5088382;28;20422;-76
2021/05/06 09:35:55;;;;;;;1.75;1.00;;;;;;;21.96;30.62;94990.25;5085119;28;20044;-76
2021/05/06 09:38:32;;;;;;;7.40;1.27;;;;;;;21.99;31.75;94990.78;5088139;28;20063;-76
2021/05/06 09:41:03;;;;;;;1.70;1.10;;;;;;;21.92;31.98;95007.88;5085280;28;20050;-76
2021/05/06 09:43:38;;;;;;;4.70;1.20;;;;;;;21.81;31.87;94995.91;5087331;28;20059;-75
2021/05/06 09:46:31;;;;;;;3.72;1.38;;;;;;;21.86;30.76;94987.84;5087175;28;20120;-76
2021/05/06 09:49:29;;;;;;;3.60;1.52;;;;;;;22.18;31.32;94988.72;5086320;28;20141;-76
2021/05/06 09:51:59;;;;;;;5.18;1.00;;;;;;;22.06;30.79;95012.38;5085440;28;20126;-76
2021/05/06 09:54:29;;;;;;;4.80;1.30;;;;;;;22.14;32.16;94993.84;5087090;28;20036;-76
2021/05/06 09:57:06;;;;;;;5.30;1.25;;;;;;;22.17;30.50;94992.47;5088046;28;20055;-76
2021/05/06 09:59:39;;;;;;;2.80;1.33;;;;;;;22.57;30.03;94994.50;5085515;28;20102;-76
2021/05/06 10:02:13;;;;;;;1.35;0.93;;;;;;;23.08;29.17;94988.72;5086965;28;20119;-76
2021/05/06 10:04:43;;;;;;;3.00;0.90;;;;;;;23.07;27.20;94997.75;5085811;28;20086;-76
2021/05/06 10:07:23;;;;;;;3.90;1.20;;;;;;;23.17;28.22;94990.59;5083837;28;20602;-76
2021/05/06 10:10:08;;;;;;;6.18;1.88;;;;;;;23.18;29.49;94984.22;5084863;28;20040;-77
2021/05/06 10:12:36;;;;;;;3.17;1.25;;;;;;;23.38;28.24;94985.53;5087075;28;20074;-76
2021/05/06 10:15:08;;;;;;;4.05;1.00;;;;;;;23.39;28.61;94987.88;5087502;28;20428;-76
2021/05/06 10:17:36;;;;;;;9.93;1.42;;;;;;;23.42;29.39;94984.59;5085821;28;20048;-76
2021/05/06 10:20:04;;;;;;;2.85;0.75;;;;;;;23.56;27.57;94968.53;5086461;28;20485;-77
2021/05/06 10:22:31;;;;;;;4.13;1.27;;;;;;;23.64;27.57;94972.28;5087191;28;20055;-77
2021/05/06 10:25:02;;;;;;;1.70;0.73;;;;;;;23.96;27.26;94978.31;5085380;28;20169;-77
2021/05/06 10:27:28;;;;;;;2.80;1.10;;;;;;;23.80;27.18;94986.72;5086929;28;20032;-76
2021/05/06 10:29:58;;;;;;;7.28;0.90;;;;;;;23.89;26.78;94978.00;5087394;28;20047;-76
2021/05/06 10:32:27;;;;;;;1.63;1.10;;;;;;;24.27;27.22;94982.69;5086764;28;20134;-76
2021/05/06 10:34:57;;;;;;;3.03;1.20;;;;;;;24.26;27.21;94997.88;5088889;28;20504;-76
2021/05/06 10:37:28;;;;;;;2.95;1.15;;;;;;;24.08;27.67;94981.13;5092491;28;20083;-76
2021/05/06 10:39:55;;;;;;;5.18;1.15;;;;;;;24.03;26.70;94991.94;5088842;28;20051;-76
2021/05/06 10:42:31;;;;;;;2.55;1.02;;;;;;;24.04;26.97;95004.16;5091269;28;20044;-76
2021/05/06 10:45:18;;;;;;;3.80;1.30;;;;;;;23.81;27.21;95004.25;5092625;28;20044;-75
2021/05/06 10:47:49;;;;;;;1.60;1.17;;;;;;;23.96;27.17;94989.72;5082517;28;20055;-77
2021/05/06 10:50:32;;;;;;;3.25;0.93;;;;;;;24.44;25.57;94998.66;5090115;28;20048;-76
2021/05/06 10:52:59;;;;;;;4.90;1.10;;;;;;;24.60;25.74;94986.44;5085218;28;20040;-77
2021/05/06 10:55:42;;;;;;;5.25;1.35;;;;;;;24.65;25.50;94998.00;5088874;28;20040;-74
2021/05/06 10:58:30;;;;;;;5.70;1.30;;;;;;;25.19;26.77;94995.66;5089448;28;20040;-74
2021/05/06 11:01:09;;;;;;;8.57;1.30;;;;;;;25.07;25.11;94998.25;5072543;28;20036;-76
2021/05/06 11:03:37;;;;;;;6.60;1.08;;;;;;;24.86;24.52;95004.25;5088434;28;20043;-76
2021/05/06 11:06:04;;;;;;;3.60;0.90;;;;;;;25.04;25.33;95007.63;5089342;28;20036;-76
2021/05/06 11:08:35;;;;;;;2.88;1.00;;;;;;;24.98;24.72;94985.72;5093357;28;20048;-75
2021/05/06 11:11:06;;;;;;;1.48;0.80;;;;;;;25.52;24.39;94997.75;5086211;28;20525;-75
2021/05/06 11:14:10;;;;;;;1.83;0.90;;;;;;;25.61;23.52;94993.16;5088246;28;20039;-76
2021/05/06 11:16:39;;;;;;;4.40;1.00;;;;;;;25.92;23.75;95000.03;5086771;28;20055;-76
2021/05/06 11:19:09;;;;;;;4.70;0.70;;;;;;;25.83;23.29;95001.97;5085671;28;20044;-76
2021/05/06 11:21:37;;;;;;;2.95;0.90;;;;;;;25.23;23.98;94985.94;5084430;28;20048;-75
2021/05/06 11:24:16;;;;;;;3.47;1.17;;;;;;;25.24;23.73;94998.19;5085867;28;20028;-76
2021/05/06 11:27:07;;;;;;;5.47;2.80;;;;;;;25.40;24.86;95001.09;5084926;28;20086;-75
2021/05/06 11:29:34;;;;;;;4.68;1.10;;;;;;;25.74;24.93;94994.78;5085008;28;20036;-76
2021/05/06 11:32:01;;;;;;;2.60;1.00;;;;;;;25.49;23.65;95009.06;5086681;28;20514;-76
2021/05/06 11:34:38;;;;;;;3.38;0.90;;;;;;;25.61;24.96;94992.38;5085446;28;20044;-75
2021/05/06 11:37:16;;;;;;;3.38;1.45;;;;;;;25.48;24.23;94996.81;5086721;28;20103;-76
2021/05/06 11:39:55;;;;;;;3.35;1.40;;;;;;;25.63;25.28;94992.84;5084737;28;20046;-76
2021/05/06 11:42:23;;;;;;;1.40;1.10;;;;;;;25.75;24.25;94988.34;5085370;28;20529;-75
2021/05/06 11:45:13;;;;;;;4.88;1.00;;;;;;;25.89;24.39;94979.31;5086556;28;20028;-76
2021/05/06 11:47:41;;;;;;;2.35;0.93;;;;;;;26.27;24.13;94983.75;5085969;28;20060;-77
2021/05/06 11:50:20;;;;;;;5.50;0.93;;;;;;;26.07;25.10;94986.13;5086262;28;20414;-76
2021/05/06 11:52:47;;;;;;;4.53;1.58;;;;;;;26.19;24.12;95004.09;5085493;28;20127;-76
2021/05/06 11:55:33;;;;;;;3.70;1.50;;;;;;;25.69;24.59;94997.63;5087007;28;20106;-78
2021/05/06 11:57:59;;;;;;;2.30;1.08;;;;;;;25.93;24.70;94990.94;5094256;28;20051;-78
2021/05/06 12:00:31;;;;;;;6.05;1.25;;;;;;;26.16;24.74;94982.59;5095190;28;20112;-77
2021/05/06 12:03:16;;;;;;;3.33;1.45;;;;;;;26.52;23.33;94985.44;5093457;28;20044;-78
2021/05/06 12:05:58;;;;;;;3.38;1.05;;;;;;;26.12;23.64;94985.91;5095225;28;20032;-78
2021/05/06 12:08:27;;;;;;;2.88;0.77;;;;;;;26.46;23.60;94970.72;5097893;28;20040;-78
2021/05/06 12:10:54;;;;;;;4.75;1.20;;;;;;;26.70;23.59;94959.38;5100997;28;20044;-78
2021/05/06 12:13:31;;;;;;;4.60;1.55;;;;;;;26.97;22.94;94961.72;5097915;28;20104;-77
2021/05/06 12:16:15;;;;;;;7.70;1.20;;;;;;;27.18;23.13;94967.78;5095709;28;20572;-78
2021/05/06 12:21:47;;;;;;;4.15;1.38;;;;;;;26.98;22.64;94963.31;5091276;28;20570;-77
2021/05/06 12:24:26;;;;;;;10.35;2.13;;;;;;;26.45;22.72;94947.81;5088980;28;20123;-76
2021/05/06 12:26:53;;;;;;;2.28;1.00;;;;;;;26.70;22.58;94954.03;5094462;28;20048;-79
2021/05/06 12:29:21;;;;;;;2.22;0.95;;;;;;;26.92;23.12;94956.59;5092590;28;20036;-78
2021/05/06 12:31:49;;;;;;;2.25;0.70;;;;;;;27.17;22.87;94960.88;5089361;28;20036;-77
2021/05/06 12:34:21;;;;;;;2.35;0.90;;;;;;;27.39;22.17;94966.94;5089847;28;20036;-78
2021/05/06 12:36:57;;;;;;;1.88;0.68;;;;;;;27.41;22.99;94965.47;5092574;28;20101;-79
2021/05/06 12:39:26;;;;;;;4.75;1.10;;;;;;;26.98;22.40;94964.09;5093731;28;20055;-78
2021/05/06 12:41:57;;;;;;;5.25;1.13;;;;;;;26.69;22.26;94957.03;5092588;28;20136;-78
2021/05/06 12:44:33;;;;;;;1.38;0.80;;;;;;;27.06;24.13;94954.38;5091624;28;20497;-78
2021/05/06 12:47:19;;;;;;;4.88;0.85;;;;;;;27.11;21.79;94956.06;5094386;28;20101;-78
2021/05/06 12:49:47;;;;;;;3.00;0.90;;;;;;;27.16;22.40;94951.28;5088695;28;20058;-78
2021/05/06 12:52:36;;;;;;;2.67;0.82;;;;;;;27.60;21.82;94954.22;5087427;28;20508;-78
2021/05/06 12:55:25;;;;;;;2.03;0.52;;;;;;;28.11;21.40;94942.25;5089172;28;20040;-78
2021/05/06 12:58:15;;;;;;;5.78;1.17;;;;;;;28.36;21.24;94949.09;5089002;28;20042;-77
2021/05/06 13:01:01;;;;;;;3.70;1.20;;;;;;;28.06;21.43;94955.91;5099829;28;20552;-78
2021/05/06 13:03:38;;;;;;;3.05;1.08;;;;;;;28.00;21.29;94952.69;5103272;28;20097;-78
2021/05/06 13:06:10;;;;;;;1.40;0.65;;;;;;;28.28;20.98;94947.34;5103572;28;20028;-77
2021/05/06 13:08:44;;;;;;;1.58;0.90;;;;;;;28.35;20.88;94963.59;5099197;28;20032;-78
2021/05/06 13:11:18;;;;;;;2.65;1.10;;;;;;;28.23;21.42;94939.56;5099057;28;20044;-78
2021/05/06 13:13:46;;;;;;;1.38;0.85;;;;;;;27.82;21.23;94952.13;5087102;28;20398;-79
2021/05/06 13:16:17;;;;;;;4.18;1.00;;;;;;;27.72;21.75;94947.28;5092692;28;20107;-78
2021/05/06 13:19:08;;;;;;;2.28;1.00;;;;;;;27.69;21.96;94943.34;5097683;28;20091;-78
2021/05/06 13:21:35;;;;;;;2.55;1.38;;;;;;;27.79;22.25;94942.13;5105198;28;20127;-78
2021/05/06 13:24:04;;;;;;;1.67;0.90;;;;;;;27.58;21.42;94943.03;5106062;28;20055;-79
2021/05/06 13:26:38;;;;;;;2.53;0.98;;;;;;;27.77;21.29;94944.38;5109472;28;20059;-78
2021/05/06 13:29:07;;;;;;;2.97;0.70;;;;;;;27.82;21.18;94930.72;5108860;28;20040;-78
2021/05/06 13:31:39;;;;;;;4.20;0.80;;;;;;;28.09;20.97;94931.94;5103704;28;20036;-78
2021/05/06 13:34:18;;;;;;;2.83;1.17;;;;;;;28.54;20.43;94943.44;5095356;28;20040;-79
2021/05/06 13:37:02;;;;;;;4.05;1.25;;;;;;;28.22;19.97;94932.66;5098599;28;20114;-78
2021/05/06 13:39:31;;;;;;;3.38;0.77;;;;;;;28.13;20.53;94932.03;5093078;28;20123;-79
2021/05/06 13:41:58;;;;;;;1.13;0.88;;;;;;;27.72;20.86;94926.63;5097097;28;20042;-78
2021/05/06 13:44:29;;;;;;;2.05;1.25;;;;;;;27.96;20.98;94925.81;5102385;28;20046;-79
2021/05/06 13:46:58;;;;;;;5.43;0.93;;;;;;;27.71;21.02;94924.28;5097530;28;20173;-79
2021/05/06 13:49:30;;;;;;;10.45;0.90;;;;;;;27.79;20.07;94915.38;5087442;28;20050;-78
2021/05/06 13:51:58;;;;;;;9.02;1.75;;;;;;;27.62;20.92;94911.84;5088376;28;20048;-78
2021/05/06 13:54:27;;;;;;;3.35;1.02;;;;;;;27.68;20.82;94924.97;5088559;28;20040;-78
2021/05/06 13:56:57;;;;;;;3.00;1.08;;;;;;;27.60;20.84;94930.13;5088221;28;20056;-78
2021/05/06 13:59:24;;;;;;;1.63;0.70;;;;;;;27.42;20.73;94918.09;5090587;28;20068;-78
2021/05/06 14:01:53;;;;;;;3.22;1.00;;;;;;;27.56;21.71;94918.53;5097489;28;20533;-77
2021/05/06 14:04:21;;;;;;;1.92;0.77;;;;;;;27.96;20.67;94920.44;5100832;28;20115;-77
2021/05/06 14:06:47;;;;;;;1.73;0.80;;;;;;;28.09;19.86;94917.75;5098862;28;20070;-78
2021/05/06 14:09:18;;;;;;;2.40;0.90;;;;;;;27.56;20.42;94923.09;5093541;28;20136;-77
2021/05/06 14:11:47;;;;;;;1.05;0.70;;;;;;;27.52;20.00;94924.91;5100178;28;20043;-77
2021/05/06 14:14:16;;;;;;;6.47;0.57;;;;;;;27.18;20.41;94916.22;5098369;28;20047;-78
2021/05/06 14:16:43;;;;;;;2.88;0.90;;;;;;;26.91;20.33;94920.31;5099700;28;20036;-78
2021/05/06 14:19:12;;;;;;;2.25;0.73;;;;;;;27.00;20.90;94912.97;5097994;28;20060;-78
2021/05/06 14:21:40;;;;;;;2.08;0.82;;;;;;;27.68;20.71;94911.59;5101262;28;20044;-77
2021/05/06 14:24:08;;;;;;;4.85;1.00;;;;;;;27.92;20.83;94903.53;5104956;28;20096;-78
2021/05/06 14:26:35;;;;;;;3.40;1.00;;;;;;;28.32;19.26;94916.06;5093960;28;20559;-78
2021/05/06 14:29:03;;;;;;;2.10;0.50;;;;;;;28.07;19.21;94914.63;5089278;28;20047;-77
2021/05/06 14:31:29;;;;;;;1.60;0.70;;;;;;;27.90;19.80;94911.13;5093141;28;20128;-78
2021/05/06 14:33:55;;;;;;;3.65;0.43;;;;;;;28.15;19.07;94921.75;5091975;28;20054;-77
2021/05/06 14:36:22;;;;;;;1.63;0.73;;;;;;;28.06;18.61;94908.50;5089984;28;20067;-78
2021/05/06 14:38:49;;;;;;;4.88;0.93;;;;;;;28.14;18.36;94912.16;5090259;28;20043;-77
2021/05/06 14:41:15;;;;;;;2.28;0.65;;;;;;;27.81;19.79;94902.44;5087731;28;20067;-77
2021/05/06 14:43:41;;;;;;;6.20;0.63;;;;;;;28.57;18.71;94905.25;5089899;28;20456;-77
2021/05/06 14:46:08;;;;;;;4.68;0.60;;;;;;;28.50;17.95;94900.47;5087776;28;20488;-78
2021/05/06 14:48:34;;;;;;;2.35;1.35;;;;;;;28.00;18.39;94913.31;5086930;28;20040;-78
2021/05/06 14:51:01;;;;;;;1.77;0.70;;;;;;;27.56;18.62;94902.47;5088377;28;20110;-78
2021/05/06 14:53:29;;;;;;;3.25;0.90;;;;;;;27.67;18.93;94899.34;5088847;28;20937;-78
2021/05/06 14:55:58;;;;;;;1.25;0.50;;;;;;;28.03;17.49;94899.25;5089191;28;21640;-78
2021/05/06 14:58:28;;;;;;;3.22;0.68;;;;;;;28.13;17.51;94897.22;5086526;28;20036;-77
2021/05/06 15:00:55;;;;;;;3.97;0.60;;;;;;;28.62;18.18;94896.97;5088719;28;20645;-75
2021/05/06 15:03:26;;;;;;;2.38;0.60;;;;;;;28.72;17.21;94891.13;5084475;28;20067;-77
2021/05/06 15:05:53;;;;;;;4.82;0.75;;;;;;;28.53;17.01;94904.38;5084999;28;20126;-76
2021/05/06 15:08:20;;;;;;;3.63;1.35;;;;;;;28.47;16.79;94895.03;5087134;28;20040;-76
2021/05/06 15:10:46;;;;;;;4.55;1.02;;;;;;;28.55;17.66;94902.16;5086721;28;20036;-77
2021/05/06 15:13:12;;;;;;;1.83;0.70;;;;;;;28.77;16.68;94890.84;5089448;28;20043;-78